VEGT/GAU METAR and TAF weather

Enter ICAO airport designator
Station Type Date Time Source
VEGT METAR 2020/09/25 16:00 UTC NOAA

VEGT 251600Z 36006KT 2500 -RA FEW010 SCT018 FEW025CB BKN090 27/27 Q1004 NOSIG


Station Type Date Time Source
VEGT Decoded METAR 2020/09/25 16:00 UTC NOAA

Gauhati, India (VEGT) 26-06N 091-35E 54M
Sep 25, 2020 - 12:00 PM EDT / 2020.09.25 1600 UTC
Wind: from the N (360 degrees) at 7 MPH (6 KT):0
Visibility: 1 mile(s):0
Sky conditions: mostly cloudy
Weather: light rain; Cumulonimbus clouds observed
Temperature: 80 F (27 C)
Dew Point: 80 F (27 C)
Relative Humidity: 100%
Pressure (altimeter): 29.65 in. Hg (1004 hPa)
ob: VEGT 251600Z 36006KT 2500 -RA FEW010 SCT018 FEW025CB BKN090 27/27 Q1004 NOSIG
cycle: 16

Station Type Date Time Source
VEGT TAF 2016/03/24 00:45 UTC NOAA

TAF VEGT 242300Z 2500/2606 00000KT 2000 BR FEW020
BECMG 2503/2506 05008KT 4000 HZ
BECMG 2506/2509 5000 HZ
BECMG 2512/2514 00000KT 4000 HZ FEW020 SCT100
BECMG 2515/2518 2500 HZ
BECMG 2603/2606 05008KT 4000 HZ FEW020=

Example: see airport list